Weather History for Weatherford, OK

Change the Weather History Date:

Tuesday, March 26, 2013

  Actual Average (KJWG) Record (KJWG)
Temperature  
Mean Temperature 36 °F -  
Max Temperature 53 °F 65 °F 85 °F (1972)
Min Temperature 19 °F 40 °F 15 °F (1964)
Degree Days  
Heating Degree Days 29    
Moisture  
Dew Point 21 °F    
Average Humidity 56    
Maximum Humidity 93    
Minimum Humidity 30    
Precipitation  
Precipitation 0.00 in - - ()
Sea Level Pressure  
Sea Level Pressure 30.33 in    
Wind  
Wind Speed 4 mph (South)    
Max Wind Speed 16 mph    
Max Gust Speed 23 mph    
Visibility 10 miles    
Events      
Averages and records for this station are not official NWS values.
T = Trace of Precipitation, MM = Missing Value Source: NWS Daily Summary

Daily Weather History Graph

Daily Weather History Graph

Search for Another Location

Airport:

Trip Planner

Search our weather history database for the weather conditions in past years. The results will help you decide how hot, cold, wet, or windy it might be!

Date:

Astronomy

Mar. 26, 2013 Rise Set
Actual Time 7:29 AM CDT 7:51 PM CDT
Civil Twilight 7:03 AM CDT 8:17 PM CDT
Nautical Twilight 6:33 AM CDT 8:47 PM CDT
Astronomical Twilight 6:03 AM CDT 9:17 PM CDT
Moon 7:29 PM CDT (3/26) 6:46 AM CDT (3/26)
Length of Visible Light 13h 13m
Length of Day
12h 22m
Waxing Gibbous, 99% of the Moon is Illuminated
Mar 26
Waxing Gibbous
Mar 27
Full
Apr 2
Last Quarter
Apr 10
New
Apr 18
First Quarter

Hourly Weather History & Observations

Time (CDT) Temp. Windchill Dew Point Humidity Pressure Visibility Wind Dir Wind Speed Gust Speed Precip Events Conditions
12:15 AM 28.4 °F - 17.6 °F 64% 30.40 in 10.0 mi Calm Calm - N/A   Clear
12:35 AM 26.6 °F - 17.6 °F 69% 30.40 in 10.0 mi Calm Calm - N/A   Clear
12:55 AM 30.2 °F 25.4 °F 17.6 °F 60% 30.40 in 10.0 mi North 4.6 mph - N/A   Clear
1:15 AM 28.4 °F - 17.6 °F 64% 30.40 in 10.0 mi Calm Calm - N/A   Clear
1:35 AM 26.6 °F - 17.6 °F 69% 30.40 in 10.0 mi Calm Calm - N/A   Clear
1:55 AM 26.6 °F - 17.6 °F 69% 30.40 in 10.0 mi Calm Calm - N/A   Clear
2:15 AM 24.8 °F - 17.6 °F 74% 30.40 in 10.0 mi Calm Calm - N/A   Clear
2:35 AM 24.8 °F - 17.6 °F 74% 30.40 in 10.0 mi Calm Calm - N/A   Clear
2:55 AM 23.0 °F 18.4 °F 17.6 °F 80% 30.40 in 10.0 mi NNW 3.5 mph - N/A   Clear
3:15 AM 23.0 °F - 17.6 °F 80% 30.40 in 10.0 mi Calm Calm - N/A   Clear
3:35 AM 24.8 °F - 17.6 °F 74% 30.41 in 10.0 mi Calm Calm - N/A   Clear
3:55 AM 23.0 °F - 15.8 °F 74% 30.40 in 10.0 mi Calm Calm - N/A   Clear
4:15 AM 21.2 °F - 15.8 °F 80% 30.40 in 10.0 mi Calm Calm - N/A   Clear
4:35 AM 21.2 °F - 17.6 °F 86% 30.41 in 10.0 mi Calm Calm - N/A   Clear
4:55 AM 21.2 °F 16.4 °F 15.8 °F 80% 30.40 in 10.0 mi North 3.5 mph - N/A   Clear
5:15 AM 19.4 °F - 17.6 °F 93% 30.40 in 10.0 mi Calm Calm - N/A   Clear
5:35 AM 21.2 °F - 15.8 °F 80% 30.40 in 10.0 mi Calm Calm - N/A   Clear
5:55 AM 19.4 °F - 15.8 °F 86% 30.40 in 10.0 mi Calm Calm - N/A   Clear
6:15 AM 19.4 °F - 14.0 °F 80% 30.40 in 10.0 mi Calm Calm - N/A   Clear
6:35 AM 19.4 °F - 14.0 °F 80% 30.40 in 10.0 mi Calm Calm - N/A   Clear
6:55 AM 19.4 °F - 14.0 °F 80% 30.40 in 10.0 mi Calm Calm - N/A   Clear
7:15 AM 19.4 °F - 14.0 °F 80% 30.41 in 10.0 mi Calm Calm - N/A   Clear
7:35 AM 19.4 °F - 14.0 °F 80% 30.42 in 10.0 mi Calm Calm - N/A   Clear
7:55 AM 19.4 °F - 14.0 °F 80% 30.42 in 10.0 mi Calm Calm - N/A   Clear
8:15 AM 19.4 °F 14.3 °F 17.6 °F 93% 30.42 in 10.0 mi North 3.5 mph - N/A   Clear
8:35 AM 21.2 °F - 17.6 °F 86% 30.42 in 10.0 mi Calm Calm - N/A   Clear
8:55 AM 24.8 °F - 19.4 °F 80% 30.43 in 10.0 mi Calm Calm - N/A   Clear
9:15 AM 28.4 °F - 21.2 °F 74% 30.43 in 10.0 mi Calm Calm - N/A   Clear
9:35 AM 32.0 °F 28.7 °F 23.0 °F 69% 30.44 in 10.0 mi South 3.5 mph - N/A   Clear
9:55 AM 33.8 °F 30.8 °F 21.2 °F 60% 30.43 in 10.0 mi SSE 3.5 mph - N/A   Clear
10:15 AM 35.6 °F 31.7 °F 21.2 °F 56% 30.43 in 10.0 mi South 4.6 mph - N/A   Clear
10:35 AM 35.6 °F 30.7 °F 21.2 °F 56% 30.43 in 10.0 mi WSW 5.8 mph - N/A   Clear
10:55 AM 37.4 °F 33.8 °F 19.4 °F 48% 30.43 in 10.0 mi SSE 4.6 mph - N/A   Clear
11:15 AM 39.2 °F 35.9 °F 19.4 °F 45% 30.42 in 10.0 mi SSW 4.6 mph - N/A   Clear
11:35 AM 41.0 °F 36.4 °F 19.4 °F 42% 30.42 in 10.0 mi SW 6.9 mph - N/A   Clear
11:55 AM 41.0 °F 37.1 °F 19.4 °F 42% 30.41 in 10.0 mi West 5.8 mph - N/A   Clear
12:15 PM 42.8 °F 39.3 °F 19.4 °F 39% 30.40 in 10.0 mi SSW 5.8 mph - N/A   Clear
12:35 PM 44.6 °F 39.7 °F 21.2 °F 39% 30.39 in 10.0 mi SW 9.2 mph - N/A   Clear
12:55 PM 46.4 °F 41.9 °F 23.0 °F 40% 30.38 in 10.0 mi SSW 9.2 mph - N/A   Clear
1:15 PM 46.4 °F 41.5 °F 23.0 °F 40% 30.37 in 10.0 mi SSW 10.4 mph - N/A   Clear
1:35 PM 48.2 °F - 23.0 °F 37% 30.36 in 10.0 mi SW 9.2 mph 19.6 mph N/A   Clear
1:55 PM 50.0 °F - 23.0 °F 35% 30.34 in 10.0 mi SSW 10.4 mph - N/A   Clear
2:15 PM 50.0 °F - 23.0 °F 35% 30.33 in 10.0 mi SSW 8.1 mph 16.1 mph N/A   Clear
2:35 PM 50.0 °F - 23.0 °F 35% 30.32 in 10.0 mi South 11.5 mph 16.1 mph N/A   Clear
2:55 PM 51.8 °F - 24.8 °F 35% 30.30 in 10.0 mi South 10.4 mph 20.7 mph N/A   Clear
3:15 PM 51.8 °F - 26.6 °F 38% 30.29 in 10.0 mi South 12.7 mph 16.1 mph N/A   Clear
3:35 PM 53.6 °F - 26.6 °F 35% 30.28 in 10.0 mi SSW 10.4 mph 16.1 mph N/A   Clear
3:55 PM 51.8 °F - 24.8 °F 35% 30.27 in 10.0 mi South 12.7 mph 19.6 mph N/A   Clear
4:15 PM 53.6 °F - 24.8 °F 33% 30.25 in 10.0 mi South 10.4 mph 21.9 mph N/A   Clear
4:35 PM 53.6 °F - 24.8 °F 33% 30.24 in 10.0 mi SSW 11.5 mph 18.4 mph N/A   Clear
4:55 PM 53.6 °F - 24.8 °F 33% 30.24 in 10.0 mi South 16.1 mph 21.9 mph N/A   Clear
5:15 PM 53.6 °F - 26.6 °F 35% 30.22 in 10.0 mi SSW 15.0 mph 18.4 mph N/A   Clear
5:35 PM 53.6 °F - 24.8 °F 33% 30.21 in 10.0 mi South 15.0 mph 23.0 mph N/A   Clear
5:55 PM 53.6 °F - 24.8 °F 33% 30.21 in 10.0 mi South 15.0 mph 19.6 mph N/A   Clear
6:15 PM 53.6 °F - 24.8 °F 33% 30.20 in 10.0 mi South 11.5 mph 18.4 mph N/A   Clear
6:35 PM 53.6 °F - 23.0 °F 30% 30.20 in 10.0 mi South 12.7 mph 20.7 mph N/A   Clear
6:55 PM 53.6 °F - 24.8 °F 33% 30.20 in 10.0 mi South 12.7 mph - N/A   Clear
7:15 PM 53.6 °F - 23.0 °F 30% 30.20 in 10.0 mi South 10.4 mph - N/A   Clear
7:35 PM 51.8 °F - 23.0 °F 33% 30.20 in 10.0 mi SSE 9.2 mph 17.3 mph N/A   Clear
7:55 PM 50.0 °F - 24.8 °F 37% 30.19 in 10.0 mi SSE 9.2 mph - N/A   Clear
8:15 PM 46.4 °F 41.5 °F 24.8 °F 43% 30.19 in 10.0 mi SSE 10.4 mph - N/A   Clear
8:35 PM 44.6 °F 39.2 °F 26.6 °F 49% 30.19 in 10.0 mi SSE 10.4 mph - N/A   Clear
8:55 PM 44.6 °F 39.2 °F 26.6 °F 49% 30.19 in 10.0 mi SSE 10.4 mph - N/A   Clear
9:15 PM 42.8 °F 36.6 °F 26.6 °F 53% 30.18 in 10.0 mi SSE 11.5 mph - N/A   Clear
9:35 PM 42.8 °F 37.0 °F 26.6 °F 53% 30.18 in 10.0 mi SSE 10.4 mph - N/A   Clear
9:55 PM 42.8 °F 36.6 °F 26.6 °F 53% 30.18 in 10.0 mi SSE 11.5 mph - N/A   Clear
10:15 PM 42.8 °F 36.6 °F 26.6 °F 53% 30.18 in 10.0 mi SSE 11.5 mph - N/A   Clear
10:35 PM 42.8 °F 36.6 °F 26.6 °F 53% 30.18 in 10.0 mi SSE 11.5 mph - N/A   Clear
10:55 PM 44.6 °F 38.4 °F 26.6 °F 49% 30.18 in 10.0 mi SSE 12.7 mph - N/A   Clear
11:15 PM 44.6 °F 37.8 °F 24.8 °F 46% 30.17 in 10.0 mi SSE 15.0 mph 20.7 mph N/A   Clear
11:35 PM 42.8 °F 35.4 °F 24.8 °F 49% 30.17 in 10.0 mi SSE 15.0 mph 19.6 mph N/A   Clear
11:55 PM 42.8 °F 35.8 °F 26.6 °F 53% 30.16 in 10.0 mi SSE 13.8 mph - N/A   Clear